Time;durP1;ratioP1;P1;durP2;ratioP2;P2;SDS_P1;SDS_P2;PMS_P1;PMS_P2;Temp;Humidity;BMP_temperature;BMP_pressure;BME280_temperature;BME280_humidity;BME280_pressure;Samples;Min_cycle;Max_cycle;Signal;HPM_P1;HPM_P2
2022/08/03 00:01:45;;;;;;;12.93;3.97;;;18.10;99.90;;;;;;5073926;28;20044;-44
2022/08/03 00:04:11;;;;;;;8.43;3.70;;;17.80;99.90;;;;;;5073023;28;20048;-45
2022/08/03 00:06:37;;;;;;;13.55;4.28;;;18.80;99.90;;;;;;5073444;28;21079;-47
2022/08/03 00:09:04;;;;;;;16.02;4.40;;;18.80;99.90;;;;;;5073165;28;20040;-44
2022/08/03 00:11:30;;;;;;;8.77;3.95;;;18.30;99.90;;;;;;5073803;28;20040;-47
2022/08/03 00:13:55;;;;;;;12.02;4.03;;;18.00;99.90;;;;;;5074094;28;20561;-47
2022/08/03 00:16:25;;;;;;;10.73;4.22;;;17.90;99.90;;;;;;5074595;28;20991;-46
2022/08/03 00:18:51;;;;;;;10.50;3.78;;;19.80;99.90;;;;;;5073466;28;20051;-44
2022/08/03 00:21:17;;;;;;;11.15;3.55;;;18.20;99.90;;;;;;5073888;28;20044;-47
2022/08/03 00:23:44;;;;;;;10.52;3.63;;;18.10;99.90;;;;;;5072944;28;20039;-45
2022/08/03 00:26:12;;;;;;;11.25;3.05;;;19.80;99.90;;;;;;5073922;28;20075;-44
2022/08/03 00:28:38;;;;;;;11.07;2.92;;;19.80;99.90;;;;;;5073247;28;20134;-45
2022/08/03 00:31:03;;;;;;;13.05;4.13;;;18.10;99.90;;;;;;5073854;28;20043;-45
2022/08/03 00:33:29;;;;;;;15.00;2.90;;;20.40;99.90;;;;;;5074448;28;20127;-44
2022/08/03 00:35:55;;;;;;;7.55;2.33;;;19.60;99.90;;;;;;5072973;28;20116;-46
2022/08/03 00:38:20;;;;;;;9.27;2.47;;;18.40;99.90;;;;;;5073760;28;20098;-45
2022/08/03 00:40:48;;;;;;;7.18;2.50;;;18.30;99.90;;;;;;5072365;28;20147;-45
2022/08/03 00:43:16;;;;;;;9.68;2.47;;;18.30;99.90;;;;;;5073235;28;20056;-43
2022/08/03 00:45:42;;;;;;;9.82;2.70;;;18.20;99.90;;;;;;5072740;28;20508;-43
2022/08/03 00:48:10;;;;;;;8.85;3.53;;;18.30;99.90;;;;;;5074742;28;20596;-44
2022/08/03 00:50:40;;;;;;;8.80;3.13;;;18.90;99.90;;;;;;5074485;28;20105;-44
2022/08/03 00:53:08;;;;;;;14.15;4.35;;;20.10;99.90;;;;;;5074101;28;20044;-43
2022/08/03 00:55:35;;;;;;;11.43;3.80;;;20.20;99.90;;;;;;5074022;28;20131;-46
2022/08/03 00:58:05;;;;;;;10.18;4.28;;;18.00;99.90;;;;;;5073519;28;20518;-45
2022/08/03 01:00:32;;;;;;;12.27;4.00;;;18.30;99.90;;;;;;5074563;28;20064;-44
2022/08/03 01:02:58;;;;;;;15.65;3.85;;;18.60;99.90;;;;;;5073617;28;20119;-44
2022/08/03 01:05:24;;;;;;;11.85;4.43;;;18.20;99.90;;;;;;5073476;28;20520;-47
2022/08/03 01:08:02;;;;;;;14.30;3.80;;;17.90;99.90;;;;;;5070536;28;20040;-44
2022/08/03 01:10:50;;;;;;;8.93;3.40;;;18.00;99.90;;;;;;5073726;28;20760;-46
2022/08/03 01:13:39;;;;;;;9.93;3.40;;;18.00;99.90;;;;;;5072760;28;20105;-49
2022/08/03 01:16:16;;;;;;;11.23;3.33;;;17.90;99.90;;;;;;5074848;28;20044;-46
2022/08/03 01:18:51;;;;;;;11.63;4.15;;;17.70;99.90;;;;;;5073156;28;20131;-45
2022/08/03 01:21:30;;;;;;;14.48;3.30;;;17.80;99.90;;;;;;5073436;28;20044;-43
2022/08/03 01:24:36;;;;;;;10.18;2.80;;;17.80;99.90;;;;;;5073109;28;20505;-44
2022/08/03 01:27:28;;;;;;;12.57;3.33;;;18.00;99.90;;;;;;5072428;28;20045;-45
2022/08/03 01:30:06;;;;;;;8.95;2.83;;;19.80;99.90;;;;;;5051581;28;20110;-47
2022/08/03 01:32:56;;;;;;;14.70;3.20;;;17.90;99.90;;;;;;5050122;28;20106;-47
2022/08/03 01:35:30;;;;;;;12.32;2.92;;;17.70;99.90;;;;;;5049439;28;20044;-46
2022/08/03 01:38:01;;;;;;;8.98;3.28;;;19.80;99.90;;;;;;5032518;28;20114;-44
2022/08/03 01:40:28;;;;;;;9.85;3.10;;;17.90;99.90;;;;;;5048649;28;20049;-46
2022/08/03 01:42:58;;;;;;;8.50;2.83;;;19.10;99.90;;;;;;5049273;28;20049;-44
2022/08/03 01:45:25;;;;;;;12.73;2.97;;;17.60;99.90;;;;;;5050981;28;20052;-43
2022/08/03 01:47:52;;;;;;;13.50;3.17;;;17.90;99.90;;;;;;5049822;28;20057;-43
2022/08/03 01:50:23;;;;;;;10.70;3.05;;;17.80;99.90;;;;;;5050783;28;20750;-47
2022/08/03 01:52:50;;;;;;;8.65;2.67;;;19.70;99.90;;;;;;5050153;28;21010;-46
2022/08/03 01:55:18;;;;;;;12.93;3.60;;;19.20;99.90;;;;;;5050304;28;20844;-46
2022/08/03 01:57:45;;;;;;;10.88;3.35;;;20.00;99.90;;;;;;5049539;28;20501;-46
2022/08/03 02:00:12;;;;;;;11.00;3.58;;;17.70;99.90;;;;;;5049325;28;20440;-43
2022/08/03 02:02:41;;;;;;;12.63;3.20;;;17.60;99.90;;;;;;5049020;28;20036;-45
2022/08/03 02:05:09;;;;;;;11.80;3.30;;;17.80;99.90;;;;;;5052307;28;20543;-46
2022/08/03 02:07:36;;;;;;;12.00;2.40;;;17.50;99.90;;;;;;5071581;28;20052;-48
2022/08/03 02:10:05;;;;;;;10.32;2.70;;;17.90;99.90;;;;;;5077596;28;20067;-45
2022/08/03 02:12:33;;;;;;;10.98;2.40;;;17.70;99.90;;;;;;5076249;28;20404;-45
2022/08/03 02:15:00;;;;;;;13.63;2.60;;;17.40;99.90;;;;;;5076865;28;20610;-44
2022/08/03 02:17:28;;;;;;;13.50;2.42;;;17.80;99.90;;;;;;5078023;28;20095;-44
2022/08/03 02:19:57;;;;;;;8.70;2.70;;;17.50;99.90;;;;;;5077992;28;20044;-46
2022/08/03 02:22:24;;;;;;;10.07;2.28;;;17.70;99.90;;;;;;5077180;28;20038;-45
2022/08/03 02:24:50;;;;;;;18.13;2.70;;;17.80;99.90;;;;;;5076347;28;20127;-44
2022/08/03 02:27:26;;;;;;;11.40;2.60;;;19.90;99.90;;;;;;5077782;28;20570;-46
2022/08/03 02:29:56;;;;;;;11.07;3.15;;;15.60;99.90;;;;;;5077019;28;20043;-45
2022/08/03 02:32:31;;;;;;;11.48;2.45;;;17.60;99.90;;;;;;5077391;28;20059;-46
2022/08/03 02:34:59;;;;;;;13.35;2.40;;;17.90;99.90;;;;;;5076473;28;20392;-44
2022/08/03 02:37:29;;;;;;;9.38;2.40;;;18.10;99.90;;;;;;5075651;28;20032;-44
2022/08/03 02:40:00;;;;;;;7.75;2.35;;;17.70;99.90;;;;;;5076218;28;20052;-44
2022/08/03 02:42:28;;;;;;;8.67;3.03;;;17.80;99.90;;;;;;5075607;28;20109;-44
2022/08/03 02:44:57;;;;;;;13.80;2.42;;;18.00;99.90;;;;;;5075857;28;20828;-42
2022/08/03 02:47:26;;;;;;;12.40;2.75;;;18.00;99.90;;;;;;5076361;28;20036;-46
2022/08/03 02:49:54;;;;;;;6.72;1.92;;;17.80;99.90;;;;;;5076129;28;20109;-47
2022/08/03 02:52:24;;;;;;;11.60;2.28;;;18.50;99.90;;;;;;5074913;28;20650;-44
2022/08/03 02:54:53;;;;;;;10.07;2.55;;;17.60;99.90;;;;;;5074733;28;20038;-47
2022/08/03 02:57:22;;;;;;;10.98;2.38;;;18.80;99.90;;;;;;5075123;28;20043;-45
2022/08/03 02:59:48;;;;;;;7.72;2.53;;;17.70;99.90;;;;;;5073818;28;20040;-46
2022/08/03 03:02:17;;;;;;;12.27;2.97;;;17.50;99.90;;;;;;5076060;28;20120;-47
2022/08/03 03:04:43;;;;;;;8.70;2.67;;;17.80;99.90;;;;;;5074940;28;20039;-44
2022/08/03 03:07:15;;;;;;;9.48;2.72;;;17.60;99.90;;;;;;5073772;28;20035;-45
2022/08/03 03:09:42;;;;;;;11.77;2.85;;;18.40;99.90;;;;;;5075797;28;20049;-47
2022/08/03 03:12:11;;;;;;;11.43;2.47;;;17.60;99.90;;;;;;5075799;28;20495;-47
2022/08/03 03:14:38;;;;;;;8.55;2.33;;;17.80;99.90;;;;;;5073806;28;20162;-47
2022/08/03 03:17:06;;;;;;;8.48;2.72;;;17.70;99.90;;;;;;5074431;28;20781;-47
2022/08/03 03:19:34;;;;;;;12.57;2.90;;;17.80;99.90;;;;;;5075354;28;20046;-48
2022/08/03 03:22:01;;;;;;;10.32;2.60;;;17.50;99.90;;;;;;5075974;28;20267;-44
2022/08/03 03:24:28;;;;;;;13.07;2.95;;;17.60;99.90;;;;;;5074639;28;20081;-46
2022/08/03 03:26:56;;;;;;;6.05;2.05;;;17.60;99.90;;;;;;5073887;28;20048;-47
2022/08/03 03:29:22;;;;;;;13.60;2.97;;;17.40;99.90;;;;;;5074943;28;20272;-48
2022/08/03 03:31:48;;;;;;;14.70;2.60;;;17.50;99.90;;;;;;5075567;28;20449;-44
2022/08/03 03:34:14;;;;;;;12.20;2.38;;;19.50;99.90;;;;;;5075575;28;20039;-44
2022/08/03 03:36:40;;;;;;;9.20;3.10;;;17.50;99.90;;;;;;5074503;28;20511;-48
2022/08/03 03:39:06;;;;;;;9.80;2.50;;;17.60;99.90;;;;;;5075167;28;20059;-45
2022/08/03 03:41:32;;;;;;;9.40;2.53;;;17.40;99.90;;;;;;5072778;28;20052;-48
2022/08/03 03:43:58;;;;;;;12.43;3.03;;;18.50;99.90;;;;;;5076574;28;20070;-46
2022/08/03 03:46:24;;;;;;;13.55;2.50;;;17.40;99.90;;;;;;5075477;28;20058;-49
2022/08/03 03:48:52;;;;;;;6.38;2.60;;;17.40;99.90;;;;;;5075738;28;20407;-45
2022/08/03 03:51:19;;;;;;;14.60;2.72;;;19.30;99.90;;;;;;5076056;28;20446;-47
2022/08/03 03:53:59;;;;;;;11.20;3.25;;;17.50;99.90;;;;;;5074611;28;20641;-45
2022/08/03 03:56:25;;;;;;;9.05;3.17;;;17.60;99.90;;;;;;5074784;28;20032;-45
2022/08/03 03:58:51;;;;;;;10.10;3.33;;;19.30;99.90;;;;;;5075030;28;20070;-49
2022/08/03 04:01:17;;;;;;;13.05;3.65;;;18.30;99.90;;;;;;5075763;28;20040;-44
2022/08/03 04:03:43;;;;;;;8.30;3.20;;;18.30;99.90;;;;;;5073702;28;20291;-44
2022/08/03 04:11:57;;;;;;;12.80;3.00;;;19.30;99.90;;;;;;5073536;28;20379;-46
2022/08/03 04:14:30;;;;;;;9.10;2.95;;;17.30;99.90;;;;;;5074448;28;20661;-45
2022/08/03 04:16:58;;;;;;;19.10;3.65;;;17.50;99.90;;;;;;5075306;28;20101;-48
2022/08/03 04:19:35;;;;;;;8.98;3.30;;;17.40;99.90;;;;;;5074551;28;20024;-45
2022/08/03 04:22:05;;;;;;;11.77;3.75;;;17.50;99.90;;;;;;5074806;28;20122;-45
2022/08/03 04:24:43;;;;;;;14.10;3.20;;;17.60;99.90;;;;;;5073535;28;20070;-47
2022/08/03 04:27:13;;;;;;;8.88;2.78;;;17.60;99.90;;;;;;5073888;28;20209;-46
2022/08/03 04:29:44;;;;;;;9.85;3.45;;;17.60;99.90;;;;;;5073541;28;20040;-47
2022/08/03 04:32:13;;;;;;;8.88;3.17;;;18.80;99.90;;;;;;5073178;28;21013;-48
2022/08/03 04:34:39;;;;;;;8.38;3.33;;;17.60;99.90;;;;;;5073140;28;20036;-49
2022/08/03 04:37:11;;;;;;;11.13;3.42;;;17.50;99.90;;;;;;5073868;28;20043;-47
2022/08/03 04:39:40;;;;;;;15.00;4.57;;;17.90;99.90;;;;;;5073312;28;20068;-45
2022/08/03 04:42:09;;;;;;;12.35;3.22;;;17.40;99.90;;;;;;5070912;28;20040;-47
2022/08/03 04:44:39;;;;;;;10.50;3.58;;;17.70;99.90;;;;;;5072735;28;20031;-47
2022/08/03 04:47:05;;;;;;;10.13;3.35;;;17.30;99.90;;;;;;5072564;28;20089;-43
2022/08/03 04:49:34;;;;;;;14.55;3.38;;;18.50;99.90;;;;;;5074579;28;20024;-46
2022/08/03 04:52:00;;;;;;;11.10;3.03;;;18.60;99.90;;;;;;5074355;28;20048;-45
2022/08/03 04:54:26;;;;;;;12.95;2.80;;;18.00;99.90;;;;;;5074991;28;20066;-44
2022/08/03 04:56:52;;;;;;;12.45;2.97;;;18.10;99.90;;;;;;5072852;28;20072;-45
2022/08/03 04:59:17;;;;;;;11.35;3.85;;;20.00;99.90;;;;;;5075068;28;20042;-42
2022/08/03 05:01:43;;;;;;;13.15;3.33;;;17.90;99.90;;;;;;5074487;28;20505;-43
2022/08/03 05:04:12;;;;;;;9.93;3.00;;;18.10;99.90;;;;;;5074185;28;20117;-43
2022/08/03 05:06:38;;;;;;;11.38;3.22;;;18.00;99.90;;;;;;5072999;28;20104;-42
2022/08/03 05:09:03;;;;;;;14.27;3.15;;;18.50;99.90;;;;;;5072976;28;20044;-45
2022/08/03 05:11:29;;;;;;;8.52;2.67;;;18.00;99.90;;;;;;5072607;28;20127;-44
2022/08/03 05:13:55;;;;;;;13.10;3.35;;;19.10;99.90;;;;;;5072277;28;20036;-44
2022/08/03 05:16:20;;;;;;;9.60;3.10;;;18.20;99.90;;;;;;5073294;28;20237;-45
2022/08/03 05:18:48;;;;;;;16.40;3.58;;;18.60;99.90;;;;;;5074446;28;20542;-46
2022/08/03 05:21:15;;;;;;;13.23;2.85;;;18.10;99.90;;;;;;5072535;28;20509;-43
2022/08/03 05:23:42;;;;;;;11.95;3.42;;;18.30;99.90;;;;;;5072516;28;20036;-48
2022/08/03 05:26:10;;;;;;;13.73;3.08;;;18.40;99.90;;;;;;5072324;28;20094;-45
2022/08/03 05:28:36;;;;;;;11.10;3.00;;;18.70;99.90;;;;;;5072772;28;20058;-45
2022/08/03 05:31:02;;;;;;;16.25;2.80;;;18.80;99.90;;;;;;5073393;28;20047;-47
2022/08/03 05:33:28;;;;;;;8.63;3.05;;;18.80;99.90;;;;;;5072927;28;20044;-48
2022/08/03 05:35:53;;;;;;;14.38;3.38;;;18.80;99.90;;;;;;5070319;28;20032;-45
2022/08/03 05:38:19;;;;;;;15.88;3.78;;;18.70;99.90;;;;;;5070884;28;20109;-47
2022/08/03 05:40:48;;;;;;;17.05;3.42;;;20.80;99.90;;;;;;5075226;28;20136;-45
2022/08/03 05:43:13;;;;;;;10.32;2.78;;;19.00;99.90;;;;;;5077060;28;20108;-47
2022/08/03 05:45:39;;;;;;;13.90;3.03;;;21.00;99.90;;;;;;5077857;28;20028;-46
2022/08/03 05:48:06;;;;;;;10.88;2.88;;;19.00;99.90;;;;;;5078175;28;20070;-47
2022/08/03 05:50:31;;;;;;;13.10;3.13;;;19.10;99.90;;;;;;5076776;28;20119;-45
2022/08/03 05:52:57;;;;;;;15.85;3.13;;;19.00;99.90;;;;;;5078087;28;20048;-50
2022/08/03 05:55:23;;;;;;;12.30;3.25;;;19.30;99.90;;;;;;5077952;28;20036;-47
2022/08/03 05:57:49;;;;;;;24.20;5.20;;;20.00;99.90;;;;;;5075877;28;20032;-48
2022/08/03 06:00:15;;;;;;;12.43;2.88;;;20.00;99.90;;;;;;5076730;28;20036;-46
2022/08/03 06:02:44;;;;;;;12.48;3.40;;;19.50;99.90;;;;;;5077710;28;20036;-47
2022/08/03 06:05:09;;;;;;;13.40;3.05;;;19.60;99.90;;;;;;5076581;28;20291;-47
2022/08/03 06:07:35;;;;;;;13.30;3.28;;;19.80;99.90;;;;;;5078013;28;20143;-49
2022/08/03 06:10:03;;;;;;;11.70;2.67;;;21.60;99.90;;;;;;5077420;28;20032;-46
2022/08/03 06:12:30;;;;;;;12.90;3.35;;;20.00;99.90;;;;;;5078075;28;20101;-48
2022/08/03 06:14:56;;;;;;;9.38;2.90;;;19.90;99.90;;;;;;5078702;28;20070;-47
2022/08/03 06:17:22;;;;;;;12.38;4.18;;;20.80;99.90;;;;;;5076486;28;20119;-46
2022/08/03 06:19:47;;;;;;;11.65;3.38;;;19.90;99.90;;;;;;5076378;28;20139;-43
2022/08/03 06:22:13;;;;;;;16.83;3.22;;;19.90;99.90;;;;;;5076910;28;20101;-46
2022/08/03 06:24:39;;;;;;;13.60;3.80;;;19.90;99.90;;;;;;5077559;28;21036;-45
2022/08/03 06:27:04;;;;;;;9.38;3.10;;;20.60;99.90;;;;;;5078298;28;20040;-48
2022/08/03 06:29:30;;;;;;;15.85;4.10;;;20.20;99.90;;;;;;5075943;28;20042;-46
2022/08/03 06:31:55;;;;;;;14.23;3.28;;;20.30;99.90;;;;;;5077383;28;20050;-47
2022/08/03 06:34:21;;;;;;;11.63;3.00;;;21.00;99.90;;;;;;5076958;28;20540;-43
2022/08/03 06:36:49;;;;;;;15.15;3.70;;;21.60;99.90;;;;;;5075979;28;20046;-45
2022/08/03 06:39:17;;;;;;;14.73;3.65;;;20.70;99.90;;;;;;5076984;28;20056;-48
2022/08/03 06:41:42;;;;;;;16.52;3.78;;;20.60;99.90;;;;;;5076216;28;20120;-45
2022/08/03 06:44:08;;;;;;;17.85;4.25;;;21.70;99.90;;;;;;5077169;28;20081;-47
2022/08/03 06:46:34;;;;;;;14.27;3.45;;;21.00;99.90;;;;;;5054218;28;20059;-47
2022/08/03 06:48:59;;;;;;;14.02;3.30;;;21.30;99.90;;;;;;5076139;28;20044;-44
2022/08/03 06:51:25;;;;;;;12.65;3.00;;;21.30;99.90;;;;;;5075563;28;20349;-49
2022/08/03 06:53:51;;;;;;;12.50;3.00;;;21.50;99.90;;;;;;5076224;28;20085;-46
2022/08/03 06:56:17;;;;;;;14.27;3.15;;;21.50;99.90;;;;;;5075807;28;20051;-49
2022/08/03 06:58:42;;;;;;;11.00;2.78;;;21.80;99.90;;;;;;5073223;28;20532;-44
2022/08/03 07:01:08;;;;;;;10.52;2.80;;;22.00;99.90;;;;;;5073664;28;20051;-58
2022/08/03 07:03:34;;;;;;;15.10;3.58;;;22.80;99.90;;;;;;5076340;28;20036;-57
2022/08/03 07:06:00;;;;;;;12.35;3.22;;;23.00;99.40;;;;;;5075075;28;20056;-57
2022/08/03 07:08:26;;;;;;;13.07;3.50;;;23.40;97.60;;;;;;5077297;28;21109;-59
2022/08/03 07:10:52;;;;;;;13.02;3.45;;;23.40;92.70;;;;;;5075831;28;20081;-58
2022/08/03 07:13:17;;;;;;;11.93;3.17;;;26.10;94.50;;;;;;5075437;28;20447;-59
2022/08/03 07:15:43;;;;;;;19.77;3.63;;;24.20;90.10;;;;;;5076204;28;20051;-59
2022/08/03 07:18:09;;;;;;;15.55;3.28;;;25.30;76.80;;;;;;5076818;28;20491;-58
2022/08/03 07:20:34;;;;;;;16.02;2.97;;;27.50;58.80;;;;;;5075923;28;20035;-58
2022/08/03 07:23:02;;;;;;;14.68;3.60;;;26.20;27.20;;;;;;5076227;28;20101;-58
2022/08/03 07:25:28;;;;;;;13.15;3.63;;;28.30;14.60;;;;;;5075646;28;20047;-59
2022/08/03 07:27:53;;;;;;;12.75;2.90;;;27.50;1.00;;;;;;5076676;28;21273;-58
2022/08/03 07:30:19;;;;;;;13.90;3.10;;;27.50;99.90;;;;;;5075792;28;20448;-59
2022/08/03 07:32:45;;;;;;;16.88;2.95;;;27.70;99.90;;;;;;5075939;28;20032;-59
2022/08/03 07:35:10;;;;;;;12.27;3.47;;;28.60;99.90;;;;;;5075045;28;20036;-59
2022/08/03 07:37:38;;;;;;;10.40;2.70;;;29.00;99.90;;;;;;5076326;28;20563;-59
2022/08/03 07:40:06;;;;;;;18.33;3.58;;;29.60;99.90;;;;;;5075238;28;20618;-59
2022/08/03 07:42:32;;;;;;;17.08;3.72;;;29.10;99.90;;;;;;5074926;28;20214;-59
2022/08/03 07:44:58;;;;;;;15.98;3.33;;;29.40;99.90;;;;;;5076501;28;20040;-57
2022/08/03 07:47:28;;;;;;;11.27;2.83;;;29.90;99.90;;;;;;5074648;28;20048;-59
2022/08/03 07:49:54;;;;;;;10.88;3.05;;;29.90;99.90;;;;;;5075859;28;20377;-58
2022/08/03 07:55:08;;;;;;;14.63;3.10;;;30.20;99.90;;;;;;5074707;28;20055;-59
2022/08/03 07:57:34;;;;;;;13.93;3.45;;;27.40;99.90;;;;;;5075832;28;20754;-59
2022/08/03 08:00:00;;;;;;;10.60;2.95;;;27.00;99.90;;;;;;5074216;28;20055;-59
2022/08/03 08:02:26;;;;;;;10.90;3.15;;;26.40;99.90;;;;;;5074085;28;20123;-59
2022/08/03 08:04:52;;;;;;;11.68;2.97;;;26.20;1.00;;;;;;5074622;28;20686;-61
2022/08/03 08:07:17;;;;;;;10.65;3.40;;;26.10;1.00;;;;;;5070758;28;20048;-59
2022/08/03 08:09:45;;;;;;;14.40;3.88;;;26.50;1.00;;;;;;5074600;28;20036;-59
2022/08/03 08:12:11;;;;;;;13.85;2.90;;;26.60;1.00;;;;;;5073729;28;20128;-59
2022/08/03 08:14:37;;;;;;;13.05;3.05;;;26.50;1.00;;;;;;5074644;28;20127;-56
2022/08/03 08:17:04;;;;;;;12.55;3.30;;;26.80;98.40;;;;;;5075901;28;20047;-59
2022/08/03 08:19:30;;;;;;;15.30;3.25;;;25.50;1.00;;;;;;5076532;28;20036;-58
2022/08/03 08:21:56;;;;;;;12.00;3.85;;;25.40;1.00;;;;;;5074754;28;20044;-58
2022/08/03 08:24:23;;;;;;;12.77;3.80;;;24.80;1.00;;;;;;5075061;28;20036;-58
2022/08/03 08:26:49;;;;;;;12.18;3.50;;;24.50;16.70;;;;;;5073782;28;20040;-59
2022/08/03 08:29:14;;;;;;;15.38;3.60;;;25.70;23.80;;;;;;5075448;28;20052;-59
2022/08/03 08:31:42;;;;;;;18.08;3.70;;;24.30;25.40;;;;;;5073070;28;20048;-58
2022/08/03 08:34:08;;;;;;;16.73;4.78;;;24.20;24.80;;;;;;5074295;28;20047;-58
2022/08/03 08:36:34;;;;;;;15.38;4.50;;;24.10;26.60;;;;;;5075581;28;20052;-59
2022/08/03 08:39:02;;;;;;;12.45;3.97;;;23.90;29.20;;;;;;5074535;28;20527;-58
2022/08/03 08:41:28;;;;;;;14.77;3.67;;;24.40;32.80;;;;;;5074395;28;20191;-58
2022/08/03 08:43:55;;;;;;;12.98;4.38;;;24.40;28.50;;;;;;5075047;28;20071;-58
2022/08/03 08:46:20;;;;;;;16.50;4.40;;;23.80;28.80;;;;;;5075561;28;20189;-58
2022/08/03 08:48:48;;;;;;;12.05;3.42;;;24.40;28.60;;;;;;5076265;28;20123;-59
2022/08/03 08:51:17;;;;;;;19.38;4.78;;;24.80;37.20;;;;;;5074693;28;20047;-58
2022/08/03 08:53:46;;;;;;;14.68;4.65;;;24.50;40.10;;;;;;5075171;28;20055;-59
2022/08/03 08:56:16;;;;;;;13.50;4.68;;;24.70;35.80;;;;;;5074753;28;20174;-58
2022/08/03 08:58:50;;;;;;;15.68;4.65;;;24.60;31.80;;;;;;5073744;28;20040;-59
2022/08/03 09:01:20;;;;;;;12.50;3.40;;;24.50;35.70;;;;;;5075837;28;20526;-58
2022/08/03 09:03:46;;;;;;;13.77;4.20;;;24.30;32.20;;;;;;5091054;28;20523;-58
2022/08/03 09:06:15;;;;;;;11.70;3.90;;;24.60;32.50;;;;;;5073763;28;20700;-58
2022/08/03 09:08:41;;;;;;;12.20;4.15;;;24.60;35.40;;;;;;5073276;28;20032;-58
2022/08/03 09:11:07;;;;;;;15.40;4.28;;;24.60;35.50;;;;;;5073860;28;20043;-58
2022/08/03 09:13:33;;;;;;;15.73;5.32;;;24.80;30.10;;;;;;5073284;28;20040;-58
2022/08/03 09:16:10;;;;;;;17.40;5.35;;;25.50;26.40;;;;;;5074026;28;20117;-58
2022/08/03 09:18:37;;;;;;;16.02;5.15;;;25.30;11.00;;;;;;5073913;28;20555;-58
2022/08/03 09:21:24;;;;;;;17.13;4.38;;;25.30;48.70;;;;;;5073982;28;20725;-58
2022/08/03 09:23:54;;;;;;;16.25;5.05;;;25.80;99.90;;;;;;5074091;28;20514;-58
2022/08/03 09:26:24;;;;;;;17.08;5.50;;;26.50;99.90;;;;;;5074405;28;20488;-58
2022/08/03 09:29:08;;;;;;;16.27;5.18;;;26.60;99.90;;;;;;5073155;28;20044;-58
2022/08/03 09:31:35;;;;;;;14.45;5.28;;;26.30;99.90;;;;;;5073139;28;20044;-58
2022/08/03 09:34:04;;;;;;;15.77;5.18;;;26.50;99.90;;;;;;5072870;28;20048;-58
2022/08/03 09:36:43;;;;;;;16.35;4.70;;;26.50;99.90;;;;;;5073026;28;20442;-58
2022/08/03 09:39:14;;;;;;;11.55;4.13;;;26.30;99.90;;;;;;5073575;28;20182;-58
2022/08/03 09:41:43;;;;;;;13.55;5.05;;;26.10;99.90;;;;;;5073940;28;20044;-58
2022/08/03 09:44:08;;;;;;;17.15;4.95;;;26.10;99.90;;;;;;5072425;28;20040;-58
2022/08/03 09:46:51;;;;;;;14.85;4.68;;;26.10;99.90;;;;;;5073576;28;20040;-58
2022/08/03 09:49:16;;;;;;;11.57;4.93;;;26.00;99.90;;;;;;5073530;28;20047;-58
2022/08/03 09:51:42;;;;;;;15.25;4.75;;;26.10;99.90;;;;;;5073623;28;20040;-59
2022/08/03 09:54:10;;;;;;;13.98;4.70;;;26.30;99.90;;;;;;5072067;28;20063;-58
2022/08/03 09:56:39;;;;;;;15.25;5.18;;;26.20;99.90;;;;;;5074050;28;20032;-58
2022/08/03 09:59:05;;;;;;;25.38;8.13;;;26.30;99.90;;;;;;5073524;28;20048;-58
2022/08/03 10:01:33;;;;;;;14.93;5.40;;;26.40;99.90;;;;;;5072449;28;21079;-58
2022/08/03 10:03:59;;;;;;;28.45;8.57;;;26.30;99.90;;;;;;5073424;28;20076;-58
2022/08/03 10:06:25;;;;;;;17.95;6.28;;;26.30;99.90;;;;;;5072338;28;20085;-58
2022/08/03 10:09:13;;;;;;;24.17;5.78;;;26.70;99.90;;;;;;5073401;28;20099;-58
2022/08/03 10:11:39;;;;;;;19.08;6.05;;;26.80;99.90;;;;;;5072287;28;20701;-58
2022/08/03 10:14:08;;;;;;;15.02;5.20;;;27.00;99.90;;;;;;5072935;28;20039;-58
2022/08/03 10:16:36;;;;;;;16.60;4.65;;;26.90;99.90;;;;;;5074511;28;20512;-58
2022/08/03 10:19:08;;;;;;;48.42;14.48;;;27.10;99.90;;;;;;5073841;28;20288;-58
2022/08/03 10:21:37;;;;;;;33.90;9.38;;;27.20;99.90;;;;;;5073792;28;20044;-58
2022/08/03 10:24:06;;;;;;;26.02;7.00;;;27.10;99.90;;;;;;5073538;28;20090;-58
2022/08/03 10:26:34;;;;;;;14.88;5.03;;;27.20;99.90;;;;;;5076733;28;20040;-58
2022/08/03 10:29:10;;;;;;;18.10;5.53;;;26.90;99.90;;;;;;5075782;28;20040;-58
2022/08/03 10:31:43;;;;;;;15.55;5.45;;;26.90;99.90;;;;;;5077454;28;20036;-58
2022/08/03 10:34:22;;;;;;;17.60;5.25;;;27.10;99.90;;;;;;5076462;28;21227;-59
2022/08/03 10:36:50;;;;;;;17.08;5.07;;;27.00;99.90;;;;;;5075687;28;20043;-58
2022/08/03 10:39:20;;;;;;;14.77;4.80;;;27.30;99.90;;;;;;5075950;28;20092;-59
2022/08/03 10:41:48;;;;;;;20.63;6.10;;;27.40;99.90;;;;;;5075724;28;20036;-58
2022/08/03 10:44:17;;;;;;;16.83;5.53;;;27.40;99.90;;;;;;5076042;28;20040;-58
2022/08/03 10:46:45;;;;;;;14.82;5.55;;;27.60;99.90;;;;;;5075731;28;20040;-58
2022/08/03 10:49:19;;;;;;;15.60;6.45;;;27.80;99.90;;;;;;5076303;28;20626;-58
2022/08/03 10:51:46;;;;;;;18.48;5.07;;;27.80;99.90;;;;;;5076787;28;20068;-58
2022/08/03 10:57:45;;;;;;;18.13;5.85;;;27.80;99.90;;;;;;5032927;28;20041;-58
2022/08/03 11:00:13;;;;;;;18.35;6.18;;;27.70;99.90;;;;;;5032124;28;20049;-58
2022/08/03 11:03:07;;;;;;;19.83;6.53;;;27.90;99.90;;;;;;5034035;28;20045;-58
2022/08/03 11:05:40;;;;;;;21.10;6.40;;;27.80;99.90;;;;;;5016120;28;20075;-58
2022/08/03 11:08:25;;;;;;;19.45;6.10;;;27.70;99.90;;;;;;5032452;28;20540;-59
2022/08/03 11:10:56;;;;;;;19.40;6.70;;;27.50;99.90;;;;;;5033251;28;20285;-58
2022/08/03 11:13:24;;;;;;;23.23;6.53;;;27.80;99.90;;;;;;5017123;28;20816;-58
2022/08/03 11:15:54;;;;;;;18.75;6.07;;;30.20;99.90;;;;;;5033566;28;20127;-59
2022/08/03 11:18:20;;;;;;;14.80;4.95;;;27.60;99.90;;;;;;5034134;28;20054;-58
2022/08/03 11:20:52;;;;;;;17.05;5.63;;;27.80;99.90;;;;;;5033480;28;20136;-59
2022/08/03 11:23:39;;;;;;;15.20;5.47;;;27.50;99.90;;;;;;5033676;28;20048;-58
2022/08/03 11:26:26;;;;;;;15.35;5.60;;;27.90;99.90;;;;;;5030354;28;20216;-58
2022/08/03 11:28:52;;;;;;;20.73;6.00;;;28.10;99.90;;;;;;5031561;28;20069;-59
2022/08/03 11:31:44;;;;;;;18.40;5.38;;;28.20;99.90;;;;;;5033549;28;20074;-58
2022/08/03 11:34:12;;;;;;;23.50;5.78;;;28.30;99.90;;;;;;4974830;28;20050;-58
2022/08/03 11:37:14;;;;;;;22.15;4.72;;;28.00;99.90;;;;;;4978338;28;20050;-59
2022/08/03 11:39:45;;;;;;;18.45;5.63;;;28.20;99.90;;;;;;4981255;28;20046;-54
2022/08/03 11:42:23;;;;;;;23.88;5.60;;;28.10;99.90;;;;;;4980471;28;20062;-58
2022/08/03 11:44:56;;;;;;;18.95;5.00;;;28.10;99.90;;;;;;4976535;28;20593;-57
2022/08/03 11:47:25;;;;;;;22.25;6.00;;;28.10;99.90;;;;;;4976573;28;20100;-58
2022/08/03 11:49:56;;;;;;;20.33;5.85;;;28.20;99.90;;;;;;4976170;28;20050;-59
2022/08/03 11:52:22;;;;;;;19.33;5.57;;;28.10;99.90;;;;;;4975442;28;20097;-58
2022/08/03 11:54:52;;;;;;;19.05;4.93;;;28.20;99.90;;;;;;4976411;28;20826;-58
2022/08/03 11:57:32;;;;;;;22.02;4.80;;;28.30;99.90;;;;;;4976788;28;20037;-58
2022/08/03 11:59:58;;;;;;;15.43;4.63;;;28.30;99.90;;;;;;4977526;28;20088;-58
2022/08/03 12:02:26;;;;;;;15.27;4.85;;;28.10;99.90;;;;;;4976784;28;20510;-59
2022/08/03 12:05:01;;;;;;;17.00;5.15;;;28.10;99.90;;;;;;4977060;28;20396;-58
2022/08/03 12:07:29;;;;;;;15.90;5.00;;;28.30;99.90;;;;;;4976927;28;20253;-58
2022/08/03 12:10:08;;;;;;;21.40;5.13;;;28.40;99.90;;;;;;4976305;28;20046;-58
2022/08/03 12:12:36;;;;;;;19.60;5.35;;;28.40;99.90;;;;;;5074730;28;20032;-58
2022/08/03 12:15:05;;;;;;;21.27;5.00;;;28.80;99.90;;;;;;5074068;28;20052;-58
2022/08/03 12:17:38;;;;;;;18.67;5.10;;;28.50;99.90;;;;;;5074525;28;20091;-58
2022/08/03 12:20:07;;;;;;;18.63;5.35;;;28.40;99.90;;;;;;5075547;28;20056;-58
2022/08/03 12:22:36;;;;;;;16.58;5.20;;;28.40;99.90;;;;;;5074223;28;20050;-58
2022/08/03 12:25:03;;;;;;;21.50;5.70;;;28.30;99.90;;;;;;5073515;28;20036;-58
2022/08/03 12:27:30;;;;;;;18.10;5.13;;;28.20;99.90;;;;;;5073959;28;20114;-58
2022/08/03 12:29:57;;;;;;;19.50;5.18;;;28.20;99.90;;;;;;5074407;28;20496;-58
2022/08/03 12:32:24;;;;;;;19.63;5.63;;;28.30;99.90;;;;;;5074069;28;20093;-58
2022/08/03 12:34:52;;;;;;;18.17;4.85;;;28.20;99.90;;;;;;5073105;28;20044;-58
2022/08/03 12:37:20;;;;;;;15.93;5.53;;;28.40;99.90;;;;;;5073841;28;20044;-58
2022/08/03 12:39:56;;;;;;;18.42;6.05;;;28.50;99.90;;;;;;5074993;28;20402;-58
2022/08/03 12:42:33;;;;;;;19.85;6.18;;;28.40;99.90;;;;;;5074207;28;20043;-58
2022/08/03 12:44:58;;;;;;;16.67;4.35;;;28.30;99.90;;;;;;5073560;28;20056;-58
2022/08/03 12:47:24;;;;;;;23.67;5.70;;;28.30;99.90;;;;;;5075157;28;20057;-58
2022/08/03 12:49:52;;;;;;;19.42;6.05;;;27.90;99.90;;;;;;5074563;28;20036;-57
2022/08/03 12:52:19;;;;;;;19.80;4.78;;;27.90;99.90;;;;;;5075388;28;20044;-57
2022/08/03 12:54:57;;;;;;;21.77;4.75;;;27.70;99.90;;;;;;5075112;28;20077;-58
2022/08/03 12:57:23;;;;;;;22.38;6.03;;;27.90;99.90;;;;;;5075098;28;20531;-58
2022/08/03 12:59:49;;;;;;;17.70;4.50;;;28.00;99.90;;;;;;5074960;28;20044;-57